RYR7MC LIMC-LIBR
Flight info
| Callsign | RYR7MC |
|---|---|
| Flight time | N/A |
| Altitude | 37000 |
| Route | ROBAS Y663 LOGDI DCT EKDIR DCT LOMED DCT VIE L612 DOLON |
| Aircraft | B738/M-SDE3FGILRWY/SB1 |
Departure
| Time | 2026-05-01 15:21 |
|---|---|
| Airport | Milan Malpensa International Airport (LIMC) |
Arrival
| Time | N/A |
|---|---|
| Airport | Brindisi Airport (LIBR) |
| Time | Latitude | Longitude | Altitude | Speed | Heading |
|---|---|---|---|---|---|
| 2026-05-01 14:10 | 45.62710 | 8.71627 | 740 ft | 0 kts | 349° |
| 2026-05-01 14:59 | 45.62686 | 8.71633 | 740 ft | 4 kts | 353° |
| 2026-05-01 14:59 | 45.62659 | 8.71635 | 740 ft | 4 kts | 4° |
| 2026-05-01 14:59 | 45.62634 | 8.71628 | 740 ft | 4 kts | 31° |
| 2026-05-01 15:00 | 45.62622 | 8.71608 | 739 ft | 1 kts | 79° |
| 2026-05-01 15:04 | 45.62623 | 8.71616 | 740 ft | 2 kts | 79° |
| 2026-05-01 15:04 | 45.62628 | 8.71651 | 740 ft | 5 kts | 79° |
| 2026-05-01 15:04 | 45.62636 | 8.71714 | 740 ft | 8 kts | 79° |
| 2026-05-01 15:04 | 45.62647 | 8.71794 | 740 ft | 4 kts | 79° |
| 2026-05-01 15:05 | 45.62653 | 8.71833 | 740 ft | 5 kts | 79° |
| 2026-05-01 15:05 | 45.62661 | 8.71891 | 740 ft | 7 kts | 78° |
| 2026-05-01 15:05 | 45.62672 | 8.71971 | 739 ft | 9 kts | 78° |
| 2026-05-01 15:05 | 45.62644 | 8.72034 | 740 ft | 9 kts | 167° |
| 2026-05-01 15:06 | 45.62577 | 8.72053 | 740 ft | 11 kts | 169° |
| 2026-05-01 15:06 | 45.62501 | 8.72074 | 739 ft | 12 kts | 169° |
| 2026-05-01 15:06 | 45.62414 | 8.72098 | 740 ft | 14 kts | 169° |
| 2026-05-01 15:06 | 45.62318 | 8.72124 | 740 ft | 14 kts | 169° |
| 2026-05-01 15:07 | 45.62227 | 8.72149 | 740 ft | 13 kts | 168° |
| 2026-05-01 15:07 | 45.62139 | 8.72174 | 740 ft | 13 kts | 168° |
| 2026-05-01 15:07 | 45.62053 | 8.72197 | 740 ft | 12 kts | 169° |
| 2026-05-01 15:07 | 45.61968 | 8.72220 | 740 ft | 13 kts | 168° |
| 2026-05-01 15:08 | 45.61880 | 8.72245 | 740 ft | 13 kts | 169° |
| 2026-05-01 15:08 | 45.61794 | 8.72269 | 741 ft | 12 kts | 168° |
| 2026-05-01 15:08 | 45.61703 | 8.72294 | 741 ft | 15 kts | 169° |
| 2026-05-01 15:08 | 45.61597 | 8.72323 | 739 ft | 16 kts | 169° |
| 2026-05-01 15:09 | 45.61492 | 8.72352 | 740 ft | 15 kts | 169° |
| 2026-05-01 15:09 | 45.61439 | 8.72367 | 741 ft | 0 kts | 172° |
| 2026-05-01 15:09 | 45.61433 | 8.72368 | 741 ft | 4 kts | 172° |
| 2026-05-01 15:10 | 45.61398 | 8.72352 | 739 ft | 7 kts | 233° |
| 2026-05-01 15:10 | 45.61352 | 8.72196 | 741 ft | 11 kts | 194° |
| 2026-05-01 15:10 | 45.61273 | 8.72213 | 739 ft | 13 kts | 169° |
| 2026-05-01 15:11 | 45.61178 | 8.72238 | 740 ft | 15 kts | 169° |
| 2026-05-01 15:11 | 45.60970 | 8.72295 | 741 ft | 15 kts | 169° |
| 2026-05-01 15:11 | 45.60872 | 8.72322 | 741 ft | 14 kts | 169° |
| 2026-05-01 15:12 | 45.60778 | 8.72348 | 741 ft | 13 kts | 168° |
| 2026-05-01 15:12 | 45.60640 | 8.72478 | 741 ft | 13 kts | 100° |
| 2026-05-01 15:12 | 45.60630 | 8.72610 | 741 ft | 14 kts | 96° |
| 2026-05-01 15:13 | 45.60598 | 8.73062 | 741 ft | 15 kts | 95° |
| 2026-05-01 15:14 | 45.60674 | 8.73295 | 741 ft | 14 kts | 18° |
| 2026-05-01 15:14 | 45.60765 | 8.73343 | 740 ft | 14 kts | 24° |
| 2026-05-01 15:14 | 45.60937 | 8.73401 | 741 ft | 13 kts | 345° |
| 2026-05-01 15:15 | 45.61113 | 8.73350 | 741 ft | 14 kts | 349° |
| 2026-05-01 15:15 | 45.61298 | 8.73300 | 740 ft | 14 kts | 349° |
| 2026-05-01 15:16 | 45.61483 | 8.73248 | 740 ft | 13 kts | 350° |
| 2026-05-01 15:16 | 45.61623 | 8.73302 | 741 ft | 13 kts | 80° |
| 2026-05-01 15:17 | 45.61594 | 8.73530 | 740 ft | 12 kts | 111° |
| 2026-05-01 15:18 | 45.61588 | 8.73592 | 741 ft | 0 kts | 88° |
| 2026-05-01 15:19 | 45.61588 | 8.73602 | 741 ft | 1 kts | 88° |
| 2026-05-01 15:20 | 45.61599 | 8.73720 | 741 ft | 10 kts | 80° |
| 2026-05-01 15:20 | 45.61619 | 8.73738 | 741 ft | 0 kts | 350° |
| 2026-05-01 15:20 | 45.61627 | 8.73736 | 741 ft | 4 kts | 348° |
| 2026-05-01 15:21 | 45.61864 | 8.73672 | 741 ft | 74 kts | 348° |
| 2026-05-01 15:21 | 45.62623 | 8.73460 | 740 ft | 145 kts | 348° |
| 2026-05-01 15:21 | 45.63765 | 8.73137 | 1022 ft | 183 kts | 349° |
| 2026-05-01 15:21 | 45.65030 | 8.72789 | 2012 ft | 181 kts | 350° |
| 2026-05-01 15:22 | 45.67154 | 8.74394 | 3698 ft | 200 kts | 66° |
| 2026-05-01 15:22 | 45.67713 | 8.76343 | 3939 ft | 218 kts | 69° |
| 2026-05-01 15:22 | 45.68315 | 8.78327 | 3969 ft | 218 kts | 56° |
| 2026-05-01 15:23 | 45.69433 | 8.79786 | 4020 ft | 221 kts | 37° |
| 2026-05-01 15:23 | 45.70660 | 8.81152 | 4032 ft | 224 kts | 39° |
| 2026-05-01 15:23 | 45.71853 | 8.82601 | 4347 ft | 231 kts | 51° |
| 2026-05-01 15:23 | 45.72483 | 8.84707 | 5170 ft | 234 kts | 84° |
| 2026-05-01 15:24 | 45.72251 | 8.86987 | 6078 ft | 236 kts | 114° |
| 2026-05-01 15:24 | 45.71396 | 8.89019 | 6928 ft | 241 kts | 126° |
| 2026-05-01 15:24 | 45.70388 | 8.90962 | 7768 ft | 245 kts | 127° |
| 2026-05-01 15:24 | 45.69353 | 8.92919 | 8610 ft | 248 kts | 127° |
| 2026-05-01 15:25 | 45.68312 | 8.94913 | 9498 ft | 252 kts | 126° |
| 2026-05-01 15:25 | 45.67264 | 8.96945 | 10359 ft | 256 kts | 126° |
| 2026-05-01 15:25 | 45.66207 | 8.99007 | 11173 ft | 258 kts | 125° |
| 2026-05-01 15:25 | 45.65145 | 9.01083 | 11998 ft | 260 kts | 125° |
| 2026-05-01 15:26 | 45.64035 | 9.03150 | 12711 ft | 269 kts | 128° |
| 2026-05-01 15:26 | 45.62739 | 9.05259 | 12975 ft | 295 kts | 130° |
| 2026-05-01 15:26 | 45.61323 | 9.07464 | 13605 ft | 305 kts | 131° |
| 2026-05-01 15:26 | 45.59873 | 9.09705 | 14433 ft | 308 kts | 130° |
| 2026-05-01 15:27 | 45.58412 | 9.11966 | 15212 ft | 311 kts | 130° |
| 2026-05-01 15:27 | 45.56940 | 9.14255 | 15990 ft | 315 kts | 130° |
| 2026-05-01 15:27 | 45.55956 | 9.15789 | 16482 ft | 318 kts | 130° |
| 2026-05-01 15:28 | 45.52940 | 9.20501 | 18019 ft | 325 kts | 129° |
| 2026-05-01 15:28 | 45.51408 | 9.22899 | 18732 ft | 330 kts | 129° |
| 2026-05-01 15:28 | 45.49851 | 9.25334 | 19371 ft | 334 kts | 129° |
| 2026-05-01 15:29 | 45.46679 | 9.30294 | 20593 ft | 344 kts | 129° |
| 2026-05-01 15:29 | 45.45057 | 9.32829 | 21230 ft | 348 kts | 129° |
| 2026-05-01 15:29 | 45.41755 | 9.37979 | 22486 ft | 356 kts | 129° |
| 2026-05-01 15:30 | 45.38373 | 9.43244 | 23724 ft | 365 kts | 129° |
| 2026-05-01 15:31 | 45.31406 | 9.54057 | 25779 ft | 378 kts | 129° |
| 2026-05-01 15:31 | 45.27827 | 9.59597 | 26747 ft | 384 kts | 129° |
| 2026-05-01 15:32 | 45.24186 | 9.65222 | 27759 ft | 390 kts | 129° |
| 2026-05-01 15:32 | 45.20453 | 9.70875 | 28716 ft | 397 kts | 135° |
| 2026-05-01 15:33 | 45.13666 | 9.77953 | 30108 ft | 408 kts | 142° |
| 2026-05-01 15:34 | 45.06646 | 9.84960 | 31233 ft | 416 kts | 142° |